Hauptseite
METAR-TAF:

METAR-TAF

Flughäfen :

Flughafen Kassel-Calden

Kassel, Deutschland

Breite: 51-24N, Länge: 009-23E, Höhe: 277 m

Beobachtung

Neuester Wetterbericht von vor 1 Stunde und 11 Minuten, um 22:50 UTC
Wind 6 kt aus Süd
Temperatur -5°C
Luftfeuchtigkeit 79%
Luftdruck 1002 hPa
Sichtweite: 8000 m
Geschlossene Wolkendecke in der Höhe von 1500 ft

METAR: EDVK 222250Z 17006KT 8000 OVC015 M05/M08 Q1002

Zeit: 01:01 (00:01 UTC)

Prognose

Neuester Wetterbericht von vor 7 Stunden und 1 Minuten, um 17:00 UTC
Gültige Prognose vom 22 um 18 UTC bis 23 um 03 UTC
Wind 8 kt aus Süd/Südost
Sichtweite: 9000 m
Durchbrochene Bewölkung in der Höhe von 2000 ft
Wahrscheinlichkeit 30% :
Zeitweise
vom 22 um 18 UTC bis 23 um 03 UTC
Durchbrochene Bewölkung in der Höhe von 1200 ft

TAF: EDVK 221700Z 2218/2303 15008KT 9000 BKN020 PROB30 TEMPO 2218/2303 BKN012

Wetterbeobachtungen und Prognosen von mehr als 4000 Flughäfen (METAR und TAF Bericht).

Die verfügbaren Stationen werden durch gelbe und rote Markierungen auf der Karte dargestellt.

Führen Sie die Maus auf sie, um den Namen der Station zu sehen.

Darauf klicken, um die Beobachtung von Wetterbeobachtungen und Prognosen zu sehen.

Um die Karte zu ändern : klicken Sie auf den grünen Tasten mit einem schwarzen Kreuz Zum Vergrößern, auf den grünen Button mit einem Gedankenstrich zu verkleinern, oder auf die grünen Pfeile für benachbarte Karten.


METAR-TAF: